sensor_id;sensor_type;location;lat;lon;timestamp;P1;durP1;ratioP1;P2;durP2;ratioP2
34783;SDS011;20998;51.388;7.032;2022-08-19T00:01:29;1.97;;;1.77;;
34783;SDS011;20998;51.388;7.032;2022-08-19T00:04:01;1.10;;;1.00;;
34783;SDS011;20998;51.388;7.032;2022-08-19T00:06:28;1.23;;;1.13;;
34783;SDS011;20998;51.388;7.032;2022-08-19T00:08:54;1.70;;;1.60;;
34783;SDS011;20998;51.388;7.032;2022-08-19T00:11:21;1.33;;;1.23;;
34783;SDS011;20998;51.388;7.032;2022-08-19T00:13:47;1.60;;;1.50;;
34783;SDS011;20998;51.388;7.032;2022-08-19T00:16:15;2.50;;;2.13;;
34783;SDS011;20998;51.388;7.032;2022-08-19T00:18:43;1.03;;;1.03;;
34783;SDS011;20998;51.388;7.032;2022-08-19T00:21:09;1.57;;;1.47;;
34783;SDS011;20998;51.388;7.032;2022-08-19T00:23:35;1.50;;;1.40;;
34783;SDS011;20998;51.388;7.032;2022-08-19T00:26:04;1.00;;;0.90;;
34783;SDS011;20998;51.388;7.032;2022-08-19T00:28:31;1.63;;;1.53;;
34783;SDS011;20998;51.388;7.032;2022-08-19T00:30:58;1.10;;;0.90;;
34783;SDS011;20998;51.388;7.032;2022-08-19T00:33:24;3.37;;;2.13;;
34783;SDS011;20998;51.388;7.032;2022-08-19T00:35:50;1.43;;;1.30;;
34783;SDS011;20998;51.388;7.032;2022-08-19T00:38:16;2.50;;;1.57;;
34783;SDS011;20998;51.388;7.032;2022-08-19T00:40:43;1.57;;;1.47;;
34783;SDS011;20998;51.388;7.032;2022-08-19T00:43:11;0.87;;;0.87;;
34783;SDS011;20998;51.388;7.032;2022-08-19T00:45:40;1.67;;;1.57;;
34783;SDS011;20998;51.388;7.032;2022-08-19T00:48:08;1.63;;;1.33;;
34783;SDS011;20998;51.388;7.032;2022-08-19T00:50:34;2.23;;;1.77;;
34783;SDS011;20998;51.388;7.032;2022-08-19T00:53:01;1.57;;;1.33;;
34783;SDS011;20998;51.388;7.032;2022-08-19T00:55:28;3.23;;;1.90;;
34783;SDS011;20998;51.388;7.032;2022-08-19T00:58:16;2.13;;;1.80;;
34783;SDS011;20998;51.388;7.032;2022-08-19T01:00:40;3.77;;;1.70;;
34783;SDS011;20998;51.388;7.032;2022-08-19T01:03:09;2.33;;;1.70;;
34783;SDS011;20998;51.388;7.032;2022-08-19T01:05:36;1.43;;;1.23;;
34783;SDS011;20998;51.388;7.032;2022-08-19T01:08:03;1.20;;;1.07;;
34783;SDS011;20998;51.388;7.032;2022-08-19T01:10:31;2.47;;;1.63;;
34783;SDS011;20998;51.388;7.032;2022-08-19T01:12:58;2.40;;;1.57;;
34783;SDS011;20998;51.388;7.032;2022-08-19T01:15:27;1.57;;;1.47;;
34783;SDS011;20998;51.388;7.032;2022-08-19T01:17:54;1.60;;;1.50;;
34783;SDS011;20998;51.388;7.032;2022-08-19T01:20:21;1.93;;;1.40;;
34783;SDS011;20998;51.388;7.032;2022-08-19T01:22:49;2.00;;;1.77;;
34783;SDS011;20998;51.388;7.032;2022-08-19T01:25:16;2.30;;;1.40;;
34783;SDS011;20998;51.388;7.032;2022-08-19T01:27:43;3.33;;;1.60;;
34783;SDS011;20998;51.388;7.032;2022-08-19T01:30:14;1.60;;;1.10;;
34783;SDS011;20998;51.388;7.032;2022-08-19T01:32:41;3.27;;;1.60;;
34783;SDS011;20998;51.388;7.032;2022-08-19T01:35:08;1.40;;;1.30;;
34783;SDS011;20998;51.388;7.032;2022-08-19T01:37:44;2.27;;;1.10;;
34783;SDS011;20998;51.388;7.032;2022-08-19T01:40:10;3.87;;;2.33;;
34783;SDS011;20998;51.388;7.032;2022-08-19T01:42:36;1.57;;;1.47;;
34783;SDS011;20998;51.388;7.032;2022-08-19T01:45:03;2.37;;;1.70;;
34783;SDS011;20998;51.388;7.032;2022-08-19T01:47:29;1.13;;;1.13;;
34783;SDS011;20998;51.388;7.032;2022-08-19T01:49:55;1.47;;;1.07;;
34783;SDS011;20998;51.388;7.032;2022-08-19T01:52:21;2.10;;;1.33;;
34783;SDS011;20998;51.388;7.032;2022-08-19T01:54:47;1.70;;;1.53;;
34783;SDS011;20998;51.388;7.032;2022-08-19T01:57:13;1.40;;;1.30;;
34783;SDS011;20998;51.388;7.032;2022-08-19T01:59:40;1.93;;;1.77;;
34783;SDS011;20998;51.388;7.032;2022-08-19T02:02:06;1.57;;;1.47;;
34783;SDS011;20998;51.388;7.032;2022-08-19T02:04:33;1.30;;;1.20;;
34783;SDS011;20998;51.388;7.032;2022-08-19T02:06:59;3.60;;;2.50;;
34783;SDS011;20998;51.388;7.032;2022-08-19T02:09:25;6.33;;;2.27;;
34783;SDS011;20998;51.388;7.032;2022-08-19T02:11:51;7.17;;;2.30;;
34783;SDS011;20998;51.388;7.032;2022-08-19T02:14:18;4.77;;;2.37;;
34783;SDS011;20998;51.388;7.032;2022-08-19T02:16:44;9.13;;;3.00;;
34783;SDS011;20998;51.388;7.032;2022-08-19T02:19:10;5.30;;;3.17;;
34783;SDS011;20998;51.388;7.032;2022-08-19T02:21:36;2.10;;;1.90;;
34783;SDS011;20998;51.388;7.032;2022-08-19T02:24:02;3.73;;;2.97;;
34783;SDS011;20998;51.388;7.032;2022-08-19T02:26:28;3.90;;;1.97;;
34783;SDS011;20998;51.388;7.032;2022-08-19T02:28:55;3.70;;;2.13;;
34783;SDS011;20998;51.388;7.032;2022-08-19T02:31:22;3.07;;;2.00;;
34783;SDS011;20998;51.388;7.032;2022-08-19T02:33:48;2.97;;;1.80;;
34783;SDS011;20998;51.388;7.032;2022-08-19T02:36:15;1.47;;;1.37;;
34783;SDS011;20998;51.388;7.032;2022-08-19T02:38:42;6.17;;;3.07;;
34783;SDS011;20998;51.388;7.032;2022-08-19T02:41:13;3.07;;;2.40;;
34783;SDS011;20998;51.388;7.032;2022-08-19T02:43:40;2.73;;;2.40;;
34783;SDS011;20998;51.388;7.032;2022-08-19T02:46:13;4.73;;;2.07;;
34783;SDS011;20998;51.388;7.032;2022-08-19T02:48:39;2.00;;;1.80;;
34783;SDS011;20998;51.388;7.032;2022-08-19T02:51:05;2.77;;;2.57;;
34783;SDS011;20998;51.388;7.032;2022-08-19T02:53:31;2.40;;;2.20;;
34783;SDS011;20998;51.388;7.032;2022-08-19T02:55:57;3.33;;;2.17;;
34783;SDS011;20998;51.388;7.032;2022-08-19T02:58:23;4.50;;;1.83;;
34783;SDS011;20998;51.388;7.032;2022-08-19T03:00:52;1.80;;;1.70;;
34783;SDS011;20998;51.388;7.032;2022-08-19T03:03:18;2.30;;;1.67;;
34783;SDS011;20998;51.388;7.032;2022-08-19T03:05:45;2.17;;;2.03;;
34783;SDS011;20998;51.388;7.032;2022-08-19T03:08:11;2.33;;;1.93;;
34783;SDS011;20998;51.388;7.032;2022-08-19T03:10:45;1.70;;;1.30;;
34783;SDS011;20998;51.388;7.032;2022-08-19T03:13:13;1.87;;;1.77;;
34783;SDS011;20998;51.388;7.032;2022-08-19T03:15:40;1.17;;;1.10;;
34783;SDS011;20998;51.388;7.032;2022-08-19T03:18:06;1.47;;;1.37;;
34783;SDS011;20998;51.388;7.032;2022-08-19T03:20:32;1.50;;;1.40;;
34783;SDS011;20998;51.388;7.032;2022-08-19T03:22:58;5.67;;;1.40;;
34783;SDS011;20998;51.388;7.032;2022-08-19T03:25:24;3.93;;;2.10;;
34783;SDS011;20998;51.388;7.032;2022-08-19T03:27:50;1.87;;;1.63;;
34783;SDS011;20998;51.388;7.032;2022-08-19T03:30:16;1.37;;;1.23;;
34783;SDS011;20998;51.388;7.032;2022-08-19T03:32:42;1.73;;;1.63;;
34783;SDS011;20998;51.388;7.032;2022-08-19T03:35:08;2.40;;;2.20;;
34783;SDS011;20998;51.388;7.032;2022-08-19T03:37:34;2.57;;;2.33;;
34783;SDS011;20998;51.388;7.032;2022-08-19T03:40:00;1.33;;;1.23;;
34783;SDS011;20998;51.388;7.032;2022-08-19T03:42:28;1.63;;;1.50;;
34783;SDS011;20998;51.388;7.032;2022-08-19T03:44:55;2.47;;;2.27;;
34783;SDS011;20998;51.388;7.032;2022-08-19T03:47:20;1.20;;;1.10;;
34783;SDS011;20998;51.388;7.032;2022-08-19T03:49:46;1.50;;;1.30;;
34783;SDS011;20998;51.388;7.032;2022-08-19T03:52:12;1.10;;;1.00;;
34783;SDS011;20998;51.388;7.032;2022-08-19T03:54:39;1.90;;;1.50;;
34783;SDS011;20998;51.388;7.032;2022-08-19T03:57:05;10.03;;;2.37;;
34783;SDS011;20998;51.388;7.032;2022-08-19T03:59:33;2.27;;;1.77;;
34783;SDS011;20998;51.388;7.032;2022-08-19T04:02:01;1.80;;;1.70;;
34783;SDS011;20998;51.388;7.032;2022-08-19T04:04:27;2.13;;;1.93;;
34783;SDS011;20998;51.388;7.032;2022-08-19T04:06:53;3.97;;;2.40;;
34783;SDS011;20998;51.388;7.032;2022-08-19T04:09:20;2.47;;;1.50;;
34783;SDS011;20998;51.388;7.032;2022-08-19T04:11:47;2.47;;;2.10;;
34783;SDS011;20998;51.388;7.032;2022-08-19T04:14:18;1.57;;;1.47;;
34783;SDS011;20998;51.388;7.032;2022-08-19T04:16:44;1.63;;;1.53;;
34783;SDS011;20998;51.388;7.032;2022-08-19T04:19:11;1.70;;;1.60;;
34783;SDS011;20998;51.388;7.032;2022-08-19T04:21:37;2.27;;;2.07;;
34783;SDS011;20998;51.388;7.032;2022-08-19T04:24:03;2.87;;;2.50;;
34783;SDS011;20998;51.388;7.032;2022-08-19T04:26:31;3.93;;;1.90;;
34783;SDS011;20998;51.388;7.032;2022-08-19T04:28:58;1.73;;;1.63;;
34783;SDS011;20998;51.388;7.032;2022-08-19T04:31:27;2.03;;;1.27;;
34783;SDS011;20998;51.388;7.032;2022-08-19T04:33:54;2.67;;;1.80;;
34783;SDS011;20998;51.388;7.032;2022-08-19T04:36:22;1.87;;;1.63;;
34783;SDS011;20998;51.388;7.032;2022-08-19T04:38:49;4.63;;;1.30;;
34783;SDS011;20998;51.388;7.032;2022-08-19T04:41:16;4.77;;;3.50;;
34783;SDS011;20998;51.388;7.032;2022-08-19T04:44:01;3.20;;;1.70;;
34783;SDS011;20998;51.388;7.032;2022-08-19T04:46:27;2.10;;;1.90;;
34783;SDS011;20998;51.388;7.032;2022-08-19T04:48:56;3.53;;;2.47;;
34783;SDS011;20998;51.388;7.032;2022-08-19T04:51:22;4.03;;;3.33;;
34783;SDS011;20998;51.388;7.032;2022-08-19T04:53:48;3.20;;;2.70;;
34783;SDS011;20998;51.388;7.032;2022-08-19T04:56:14;3.37;;;2.20;;
34783;SDS011;20998;51.388;7.032;2022-08-19T04:58:43;3.23;;;2.37;;
34783;SDS011;20998;51.388;7.032;2022-08-19T05:01:13;2.37;;;2.17;;
34783;SDS011;20998;51.388;7.032;2022-08-19T05:03:39;2.93;;;2.03;;
34783;SDS011;20998;51.388;7.032;2022-08-19T05:06:06;2.40;;;1.77;;
34783;SDS011;20998;51.388;7.032;2022-08-19T05:08:33;3.50;;;2.90;;
34783;SDS011;20998;51.388;7.032;2022-08-19T05:10:59;2.93;;;1.97;;
34783;SDS011;20998;51.388;7.032;2022-08-19T05:13:25;3.13;;;2.70;;
34783;SDS011;20998;51.388;7.032;2022-08-19T05:15:57;4.13;;;2.57;;
34783;SDS011;20998;51.388;7.032;2022-08-19T05:18:25;3.77;;;3.27;;
34783;SDS011;20998;51.388;7.032;2022-08-19T05:21:12;3.30;;;2.83;;
34783;SDS011;20998;51.388;7.032;2022-08-19T05:23:57;3.47;;;2.20;;
34783;SDS011;20998;51.388;7.032;2022-08-19T05:26:24;2.53;;;1.90;;
34783;SDS011;20998;51.388;7.032;2022-08-19T05:28:51;4.40;;;3.73;;
34783;SDS011;20998;51.388;7.032;2022-08-19T05:31:17;3.53;;;2.27;;
34783;SDS011;20998;51.388;7.032;2022-08-19T05:33:43;4.43;;;2.00;;
34783;SDS011;20998;51.388;7.032;2022-08-19T05:36:09;2.60;;;2.40;;
34783;SDS011;20998;51.388;7.032;2022-08-19T05:38:35;2.83;;;2.47;;
34783;SDS011;20998;51.388;7.032;2022-08-19T05:41:11;2.53;;;2.33;;
34783;SDS011;20998;51.388;7.032;2022-08-19T05:43:38;3.00;;;2.47;;
34783;SDS011;20998;51.388;7.032;2022-08-19T05:46:04;2.63;;;2.27;;
34783;SDS011;20998;51.388;7.032;2022-08-19T05:48:32;46.63;;;3.87;;
34783;SDS011;20998;51.388;7.032;2022-08-19T05:51:02;38.83;;;3.80;;
34783;SDS011;20998;51.388;7.032;2022-08-19T05:53:28;33.47;;;3.47;;
34783;SDS011;20998;51.388;7.032;2022-08-19T05:55:54;7.30;;;3.17;;
34783;SDS011;20998;51.388;7.032;2022-08-19T05:58:20;4.53;;;2.57;;
34783;SDS011;20998;51.388;7.032;2022-08-19T06:00:46;5.67;;;2.80;;
34783;SDS011;20998;51.388;7.032;2022-08-19T06:03:12;2.60;;;2.37;;
34783;SDS011;20998;51.388;7.032;2022-08-19T06:05:38;8.83;;;3.73;;
34783;SDS011;20998;51.388;7.032;2022-08-19T06:08:04;10.63;;;4.13;;
34783;SDS011;20998;51.388;7.032;2022-08-19T06:10:32;3.03;;;2.63;;
34783;SDS011;20998;51.388;7.032;2022-08-19T06:12:58;7.47;;;4.37;;
34783;SDS011;20998;51.388;7.032;2022-08-19T06:15:24;3.30;;;2.70;;
34783;SDS011;20998;51.388;7.032;2022-08-19T06:17:52;10.40;;;4.23;;
34783;SDS011;20998;51.388;7.032;2022-08-19T06:20:18;6.57;;;3.90;;
34783;SDS011;20998;51.388;7.032;2022-08-19T06:22:46;4.43;;;3.17;;
34783;SDS011;20998;51.388;7.032;2022-08-19T06:25:14;5.23;;;3.70;;
34783;SDS011;20998;51.388;7.032;2022-08-19T06:27:42;12.53;;;5.13;;
34783;SDS011;20998;51.388;7.032;2022-08-19T06:30:08;5.03;;;4.23;;
34783;SDS011;20998;51.388;7.032;2022-08-19T06:32:36;15.17;;;5.90;;
34783;SDS011;20998;51.388;7.032;2022-08-19T06:35:02;8.83;;;5.47;;
34783;SDS011;20998;51.388;7.032;2022-08-19T06:37:29;9.33;;;5.17;;
34783;SDS011;20998;51.388;7.032;2022-08-19T06:39:55;8.50;;;5.10;;
34783;SDS011;20998;51.388;7.032;2022-08-19T06:42:21;8.07;;;5.43;;
34783;SDS011;20998;51.388;7.032;2022-08-19T06:44:47;9.67;;;6.03;;
34783;SDS011;20998;51.388;7.032;2022-08-19T06:47:15;8.83;;;5.30;;
34783;SDS011;20998;51.388;7.032;2022-08-19T06:49:41;16.93;;;5.73;;
34783;SDS011;20998;51.388;7.032;2022-08-19T06:52:08;10.97;;;4.90;;
34783;SDS011;20998;51.388;7.032;2022-08-19T06:54:36;8.60;;;5.83;;
34783;SDS011;20998;51.388;7.032;2022-08-19T06:57:02;18.13;;;6.03;;
34783;SDS011;20998;51.388;7.032;2022-08-19T06:59:29;8.67;;;5.50;;
34783;SDS011;20998;51.388;7.032;2022-08-19T07:01:58;8.23;;;6.27;;
34783;SDS011;20998;51.388;7.032;2022-08-19T07:04:26;12.30;;;7.17;;
34783;SDS011;20998;51.388;7.032;2022-08-19T07:06:57;6.63;;;5.07;;
34783;SDS011;20998;51.388;7.032;2022-08-19T07:09:23;8.63;;;6.10;;
34783;SDS011;20998;51.388;7.032;2022-08-19T07:11:50;16.80;;;6.27;;
34783;SDS011;20998;51.388;7.032;2022-08-19T07:14:18;14.67;;;7.37;;
34783;SDS011;20998;51.388;7.032;2022-08-19T07:16:46;9.43;;;6.67;;
34783;SDS011;20998;51.388;7.032;2022-08-19T07:19:13;10.17;;;5.70;;
34783;SDS011;20998;51.388;7.032;2022-08-19T07:21:39;5.57;;;4.37;;
34783;SDS011;20998;51.388;7.032;2022-08-19T07:24:06;8.97;;;6.20;;
34783;SDS011;20998;51.388;7.032;2022-08-19T07:26:40;7.70;;;6.10;;
34783;SDS011;20998;51.388;7.032;2022-08-19T07:29:06;12.80;;;5.70;;
34783;SDS011;20998;51.388;7.032;2022-08-19T07:31:32;13.00;;;7.13;;
34783;SDS011;20998;51.388;7.032;2022-08-19T07:34:02;10.73;;;7.10;;
34783;SDS011;20998;51.388;7.032;2022-08-19T07:36:32;8.73;;;5.77;;
34783;SDS011;20998;51.388;7.032;2022-08-19T07:38:59;7.43;;;5.50;;
34783;SDS011;20998;51.388;7.032;2022-08-19T07:41:25;5.80;;;4.63;;
34783;SDS011;20998;51.388;7.032;2022-08-19T07:43:53;16.33;;;7.50;;
34783;SDS011;20998;51.388;7.032;2022-08-19T07:46:20;11.07;;;6.53;;
34783;SDS011;20998;51.388;7.032;2022-08-19T07:48:47;8.13;;;5.50;;
34783;SDS011;20998;51.388;7.032;2022-08-19T07:51:15;16.40;;;7.37;;
34783;SDS011;20998;51.388;7.032;2022-08-19T07:53:43;11.53;;;7.83;;
34783;SDS011;20998;51.388;7.032;2022-08-19T07:56:11;17.73;;;8.33;;
34783;SDS011;20998;51.388;7.032;2022-08-19T07:58:38;20.73;;;9.23;;
34783;SDS011;20998;51.388;7.032;2022-08-19T08:01:06;13.30;;;7.93;;
34783;SDS011;20998;51.388;7.032;2022-08-19T08:03:32;13.80;;;7.50;;
34783;SDS011;20998;51.388;7.032;2022-08-19T08:06:17;11.97;;;8.30;;
34783;SDS011;20998;51.388;7.032;2022-08-19T08:09:03;14.37;;;8.37;;
34783;SDS011;20998;51.388;7.032;2022-08-19T08:11:36;16.87;;;8.30;;
34783;SDS011;20998;51.388;7.032;2022-08-19T08:14:02;17.00;;;9.50;;
34783;SDS011;20998;51.388;7.032;2022-08-19T08:16:29;14.70;;;8.87;;
34783;SDS011;20998;51.388;7.032;2022-08-19T08:18:56;17.02;;;9.32;;
34783;SDS011;20998;51.388;7.032;2022-08-19T08:21:22;17.42;;;9.88;;
34783;SDS011;20998;51.388;7.032;2022-08-19T08:23:48;28.80;;;9.77;;
34783;SDS011;20998;51.388;7.032;2022-08-19T08:26:14;13.85;;;9.35;;
34783;SDS011;20998;51.388;7.032;2022-08-19T08:28:40;19.80;;;10.18;;
34783;SDS011;20998;51.388;7.032;2022-08-19T08:31:07;15.10;;;9.25;;
34783;SDS011;20998;51.388;7.032;2022-08-19T08:33:34;16.88;;;10.30;;
34783;SDS011;20998;51.388;7.032;2022-08-19T08:36:04;23.05;;;10.07;;
34783;SDS011;20998;51.388;7.032;2022-08-19T08:38:31;15.65;;;9.68;;
34783;SDS011;20998;51.388;7.032;2022-08-19T08:40:59;18.63;;;9.27;;
34783;SDS011;20998;51.388;7.032;2022-08-19T08:51:37;16.30;;;10.75;;
34783;SDS011;20998;51.388;7.032;2022-08-19T08:54:05;17.13;;;9.98;;
34783;SDS011;20998;51.388;7.032;2022-08-19T08:56:32;36.47;;;10.32;;
34783;SDS011;20998;51.388;7.032;2022-08-19T09:01:25;13.60;;;8.25;;
34783;SDS011;20998;51.388;7.032;2022-08-19T09:03:51;22.90;;;9.80;;
34783;SDS011;20998;51.388;7.032;2022-08-19T09:06:28;16.70;;;9.05;;
34783;SDS011;20998;51.388;7.032;2022-08-19T09:09:03;10.85;;;7.15;;
34783;SDS011;20998;51.388;7.032;2022-08-19T09:14:01;10.35;;;7.60;;
34783;SDS011;20998;51.388;7.032;2022-08-19T09:16:28;10.13;;;5.82;;
34783;SDS011;20998;51.388;7.032;2022-08-19T09:18:57;16.95;;;6.88;;
34783;SDS011;20998;51.388;7.032;2022-08-19T09:21:25;12.63;;;6.45;;
34783;SDS011;20998;51.388;7.032;2022-08-19T09:23:52;10.30;;;6.03;;
34783;SDS011;20998;51.388;7.032;2022-08-19T09:26:20;9.82;;;5.60;;
34783;SDS011;20998;51.388;7.032;2022-08-19T09:28:47;7.97;;;5.15;;
34783;SDS011;20998;51.388;7.032;2022-08-19T09:31:15;9.75;;;5.10;;
34783;SDS011;20998;51.388;7.032;2022-08-19T09:33:41;9.63;;;5.93;;
34783;SDS011;20998;51.388;7.032;2022-08-19T09:36:09;5.70;;;4.05;;
34783;SDS011;20998;51.388;7.032;2022-08-19T09:38:36;6.43;;;4.63;;
34783;SDS011;20998;51.388;7.032;2022-08-19T09:41:06;7.63;;;4.85;;
34783;SDS011;20998;51.388;7.032;2022-08-19T09:43:32;13.73;;;4.63;;
34783;SDS011;20998;51.388;7.032;2022-08-19T09:46:01;31.15;;;5.03;;
34783;SDS011;20998;51.388;7.032;2022-08-19T09:48:27;5.45;;;2.92;;
34783;SDS011;20998;51.388;7.032;2022-08-19T09:50:53;7.18;;;4.93;;
34783;SDS011;20998;51.388;7.032;2022-08-19T09:53:19;7.53;;;4.05;;
34783;SDS011;20998;51.388;7.032;2022-08-19T09:55:47;4.55;;;3.40;;
34783;SDS011;20998;51.388;7.032;2022-08-19T09:58:14;8.63;;;3.25;;
34783;SDS011;20998;51.388;7.032;2022-08-19T10:00:40;8.02;;;4.65;;
34783;SDS011;20998;51.388;7.032;2022-08-19T10:03:06;12.55;;;4.80;;
34783;SDS011;20998;51.388;7.032;2022-08-19T10:05:32;10.30;;;4.55;;
34783;SDS011;20998;51.388;7.032;2022-08-19T10:08:13;7.30;;;4.25;;
34783;SDS011;20998;51.388;7.032;2022-08-19T10:10:42;11.63;;;5.32;;
34783;SDS011;20998;51.388;7.032;2022-08-19T10:13:09;5.10;;;4.18;;
34783;SDS011;20998;51.388;7.032;2022-08-19T10:15:35;11.70;;;5.13;;
34783;SDS011;20998;51.388;7.032;2022-08-19T10:18:04;8.45;;;5.10;;
34783;SDS011;20998;51.388;7.032;2022-08-19T10:20:30;4.93;;;3.88;;
34783;SDS011;20998;51.388;7.032;2022-08-19T10:22:56;6.28;;;3.80;;
34783;SDS011;20998;51.388;7.032;2022-08-19T10:25:24;7.78;;;5.05;;
34783;SDS011;20998;51.388;7.032;2022-08-19T10:27:51;7.32;;;5.07;;
34783;SDS011;20998;51.388;7.032;2022-08-19T10:30:17;8.27;;;5.35;;
34783;SDS011;20998;51.388;7.032;2022-08-19T10:32:44;10.18;;;5.53;;
34783;SDS011;20998;51.388;7.032;2022-08-19T10:35:11;10.75;;;5.78;;
34783;SDS011;20998;51.388;7.032;2022-08-19T10:37:37;8.40;;;5.03;;
34783;SDS011;20998;51.388;7.032;2022-08-19T10:40:07;14.30;;;6.50;;
34783;SDS011;20998;51.388;7.032;2022-08-19T10:42:35;14.98;;;7.55;;
34783;SDS011;20998;51.388;7.032;2022-08-19T10:45:01;10.23;;;6.70;;
34783;SDS011;20998;51.388;7.032;2022-08-19T10:47:27;19.65;;;7.40;;
34783;SDS011;20998;51.388;7.032;2022-08-19T10:49:54;11.55;;;6.40;;
34783;SDS011;20998;51.388;7.032;2022-08-19T10:52:40;10.43;;;5.47;;
34783;SDS011;20998;51.388;7.032;2022-08-19T10:55:07;11.98;;;6.68;;
34783;SDS011;20998;51.388;7.032;2022-08-19T10:57:52;22.75;;;6.03;;
34783;SDS011;20998;51.388;7.032;2022-08-19T11:00:19;9.27;;;5.65;;
34783;SDS011;20998;51.388;7.032;2022-08-19T11:02:45;8.60;;;5.63;;
34783;SDS011;20998;51.388;7.032;2022-08-19T11:05:11;10.77;;;7.05;;
34783;SDS011;20998;51.388;7.032;2022-08-19T11:07:38;11.30;;;6.03;;
34783;SDS011;20998;51.388;7.032;2022-08-19T11:10:05;6.72;;;4.72;;
34783;SDS011;20998;51.388;7.032;2022-08-19T11:12:32;14.10;;;5.93;;
34783;SDS011;20998;51.388;7.032;2022-08-19T11:14:58;9.57;;;5.82;;
34783;SDS011;20998;51.388;7.032;2022-08-19T11:17:24;9.27;;;5.30;;
34783;SDS011;20998;51.388;7.032;2022-08-19T11:19:50;22.27;;;7.30;;
34783;SDS011;20998;51.388;7.032;2022-08-19T11:22:16;12.10;;;5.72;;
34783;SDS011;20998;51.388;7.032;2022-08-19T11:24:42;10.13;;;5.50;;
34783;SDS011;20998;51.388;7.032;2022-08-19T11:27:08;6.95;;;5.43;;
34783;SDS011;20998;51.388;7.032;2022-08-19T11:29:37;12.73;;;6.38;;
34783;SDS011;20998;51.388;7.032;2022-08-19T11:32:04;10.73;;;6.57;;
34783;SDS011;20998;51.388;7.032;2022-08-19T11:34:31;13.93;;;5.30;;
34783;SDS011;20998;51.388;7.032;2022-08-19T11:36:57;8.07;;;5.25;;
34783;SDS011;20998;51.388;7.032;2022-08-19T11:39:25;7.05;;;4.90;;
34783;SDS011;20998;51.388;7.032;2022-08-19T11:41:51;16.83;;;5.65;;
34783;SDS011;20998;51.388;7.032;2022-08-19T11:44:17;5.70;;;4.20;;
34783;SDS011;20998;51.388;7.032;2022-08-19T11:46:43;7.78;;;5.22;;
34783;SDS011;20998;51.388;7.032;2022-08-19T11:49:12;8.30;;;5.95;;
34783;SDS011;20998;51.388;7.032;2022-08-19T11:51:38;7.43;;;4.68;;
34783;SDS011;20998;51.388;7.032;2022-08-19T11:54:04;6.93;;;4.35;;
34783;SDS011;20998;51.388;7.032;2022-08-19T11:56:31;7.50;;;5.13;;
34783;SDS011;20998;51.388;7.032;2022-08-19T11:58:57;10.63;;;5.10;;
34783;SDS011;20998;51.388;7.032;2022-08-19T12:01:24;20.15;;;5.53;;
34783;SDS011;20998;51.388;7.032;2022-08-19T12:03:52;8.85;;;5.00;;
34783;SDS011;20998;51.388;7.032;2022-08-19T12:06:20;9.80;;;4.25;;
34783;SDS011;20998;51.388;7.032;2022-08-19T12:08:48;8.27;;;5.25;;
34783;SDS011;20998;51.388;7.032;2022-08-19T12:11:14;6.60;;;3.92;;
34783;SDS011;20998;51.388;7.032;2022-08-19T12:13:41;11.65;;;4.07;;
34783;SDS011;20998;51.388;7.032;2022-08-19T12:16:13;18.65;;;4.57;;
34783;SDS011;20998;51.388;7.032;2022-08-19T12:18:40;4.47;;;3.90;;
34783;SDS011;20998;51.388;7.032;2022-08-19T12:21:09;10.45;;;4.28;;
34783;SDS011;20998;51.388;7.032;2022-08-19T12:23:36;12.82;;;3.10;;
34783;SDS011;20998;51.388;7.032;2022-08-19T12:26:02;8.48;;;3.10;;
34783;SDS011;20998;51.388;7.032;2022-08-19T12:28:29;2.95;;;2.50;;
34783;SDS011;20998;51.388;7.032;2022-08-19T12:30:55;12.63;;;3.70;;
34783;SDS011;20998;51.388;7.032;2022-08-19T12:33:21;5.47;;;3.65;;
34783;SDS011;20998;51.388;7.032;2022-08-19T12:35:49;11.00;;;3.97;;
34783;SDS011;20998;51.388;7.032;2022-08-19T12:38:15;5.70;;;4.22;;
34783;SDS011;20998;51.388;7.032;2022-08-19T12:40:45;9.48;;;3.85;;
34783;SDS011;20998;51.388;7.032;2022-08-19T12:43:11;6.20;;;3.30;;
34783;SDS011;20998;51.388;7.032;2022-08-19T12:45:38;4.45;;;3.35;;
34783;SDS011;20998;51.388;7.032;2022-08-19T12:48:05;4.82;;;3.25;;
34783;SDS011;20998;51.388;7.032;2022-08-19T12:50:31;7.35;;;4.20;;
34783;SDS011;20998;51.388;7.032;2022-08-19T12:52:57;3.35;;;2.67;;
34783;SDS011;20998;51.388;7.032;2022-08-19T12:55:23;5.35;;;3.45;;
34783;SDS011;20998;51.388;7.032;2022-08-19T12:57:49;6.75;;;3.63;;
34783;SDS011;20998;51.388;7.032;2022-08-19T13:00:17;6.32;;;3.58;;
34783;SDS011;20998;51.388;7.032;2022-08-19T13:02:46;4.15;;;3.28;;
34783;SDS011;20998;51.388;7.032;2022-08-19T13:05:13;5.20;;;3.60;;
34783;SDS011;20998;51.388;7.032;2022-08-19T13:07:40;3.47;;;2.42;;
34783;SDS011;20998;51.388;7.032;2022-08-19T13:10:09;6.60;;;3.03;;
34783;SDS011;20998;51.388;7.032;2022-08-19T13:12:36;3.60;;;2.72;;
34783;SDS011;20998;51.388;7.032;2022-08-19T13:15:02;4.35;;;2.92;;
34783;SDS011;20998;51.388;7.032;2022-08-19T13:17:29;3.78;;;2.65;;
34783;SDS011;20998;51.388;7.032;2022-08-19T13:19:55;3.97;;;2.75;;
34783;SDS011;20998;51.388;7.032;2022-08-19T13:22:21;3.03;;;2.72;;
34783;SDS011;20998;51.388;7.032;2022-08-19T13:24:47;7.00;;;2.85;;
34783;SDS011;20998;51.388;7.032;2022-08-19T13:27:13;5.15;;;3.35;;
34783;SDS011;20998;51.388;7.032;2022-08-19T13:29:40;8.63;;;2.78;;
34783;SDS011;20998;51.388;7.032;2022-08-19T13:32:24;4.95;;;2.58;;
34783;SDS011;20998;51.388;7.032;2022-08-19T13:35:29;4.22;;;3.10;;
34783;SDS011;20998;51.388;7.032;2022-08-19T13:37:55;3.65;;;2.67;;
34783;SDS011;20998;51.388;7.032;2022-08-19T13:40:22;2.97;;;2.05;;
34783;SDS011;20998;51.388;7.032;2022-08-19T13:42:49;3.60;;;2.10;;
34783;SDS011;20998;51.388;7.032;2022-08-19T13:45:18;3.92;;;2.40;;
34783;SDS011;20998;51.388;7.032;2022-08-19T13:47:45;2.78;;;2.28;;
34783;SDS011;20998;51.388;7.032;2022-08-19T13:50:12;2.92;;;2.17;;
34783;SDS011;20998;51.388;7.032;2022-08-19T13:52:39;18.77;;;3.28;;
34783;SDS011;20998;51.388;7.032;2022-08-19T13:55:06;2.90;;;2.45;;
34783;SDS011;20998;51.388;7.032;2022-08-19T13:57:32;3.05;;;2.10;;
34783;SDS011;20998;51.388;7.032;2022-08-19T13:59:59;5.70;;;2.75;;
34783;SDS011;20998;51.388;7.032;2022-08-19T14:02:25;2.97;;;2.33;;
34783;SDS011;20998;51.388;7.032;2022-08-19T14:04:52;4.50;;;2.58;;
34783;SDS011;20998;51.388;7.032;2022-08-19T14:07:18;7.40;;;2.33;;
34783;SDS011;20998;51.388;7.032;2022-08-19T14:09:44;3.45;;;2.17;;
34783;SDS011;20998;51.388;7.032;2022-08-19T14:12:10;14.60;;;2.05;;
34783;SDS011;20998;51.388;7.032;2022-08-19T14:14:36;2.00;;;1.58;;
34783;SDS011;20998;51.388;7.032;2022-08-19T14:17:05;1.77;;;1.58;;
34783;SDS011;20998;51.388;7.032;2022-08-19T14:19:31;2.70;;;1.73;;
34783;SDS011;20998;51.388;7.032;2022-08-19T14:21:57;2.83;;;1.98;;
34783;SDS011;20998;51.388;7.032;2022-08-19T14:24:23;6.80;;;2.22;;
34783;SDS011;20998;51.388;7.032;2022-08-19T14:26:49;2.15;;;1.92;;
34783;SDS011;20998;51.388;7.032;2022-08-19T14:29:15;2.78;;;2.30;;
34783;SDS011;20998;51.388;7.032;2022-08-19T14:31:42;4.43;;;2.13;;
34783;SDS011;20998;51.388;7.032;2022-08-19T14:34:09;6.03;;;3.15;;
34783;SDS011;20998;51.388;7.032;2022-08-19T14:36:36;2.53;;;2.15;;
34783;SDS011;20998;51.388;7.032;2022-08-19T14:39:02;2.85;;;2.13;;
34783;SDS011;20998;51.388;7.032;2022-08-19T14:41:28;2.60;;;2.22;;
34783;SDS011;20998;51.388;7.032;2022-08-19T14:43:55;3.22;;;2.22;;
34783;SDS011;20998;51.388;7.032;2022-08-19T14:46:22;2.22;;;1.83;;
34783;SDS011;20998;51.388;7.032;2022-08-19T14:48:50;2.28;;;2.08;;
34783;SDS011;20998;51.388;7.032;2022-08-19T14:51:16;9.98;;;2.53;;
34783;SDS011;20998;51.388;7.032;2022-08-19T14:53:42;3.35;;;2.55;;
34783;SDS011;20998;51.388;7.032;2022-08-19T14:56:13;3.50;;;2.55;;
34783;SDS011;20998;51.388;7.032;2022-08-19T14:58:39;2.95;;;2.40;;